Teniente Av. Jorge Henrich Arauz Airport

Airport
ICAO code: 
SLTR
IATA Code: 
TDD
Summary
ICAO Region: 
CARSAM
Territory: 
Location: 
Trinidad, El Beni
Serving: 
Trinidad
Elevation: 
509 ft
Coordinates: 
Aerial View: 
14° 49' 7.46" S, 64° 55' 4.868" W
Metar
Observation
SLTR 182000Z 28007KT 8000 -TSRA SCT017 SCT020CB BKN070 23/22 Q1010
Station
Trinidad
Date/Time
2022-01-18 20:00:00
Wind direction
280°
Wind speed
07 kts
Lowest cloud amount
scattered clouds
Temperature
23°C
Dew point
22°C
Humidity
94%
QNH
1010 hPa
Weather condition
n/a

Airport serving the city of Trinidad, Bolivia. It is the main hub for both Amaszonas and Aerocon.

Climatology

Monsoon climate (Köppen climate classification Am).

Runways

Designator Length Width Surface Rops
14/32 2400 30 ASP No/No
Airport map: 
Aerial View: 

SKYbrary Partners:

Safety knowledge contributed by: